sensor_id;sensor_type;location;lat;lon;timestamp;pressure;altitude;pressure_sealevel;temperature;humidity
53011;BME280;42803;55.762;38.084;2023-07-30T00:00:02;98573.28;;;11.75;100.00
53011;BME280;42803;55.762;38.084;2023-07-30T00:02:38;98568.97;;;11.75;100.00
53011;BME280;42803;55.762;38.084;2023-07-30T00:05:09;98577.72;;;11.76;100.00
53011;BME280;42803;55.762;38.084;2023-07-30T00:07:38;98572.41;;;11.74;100.00
53011;BME280;42803;55.762;38.084;2023-07-30T00:10:07;98566.34;;;11.75;100.00
53011;BME280;42803;55.762;38.084;2023-07-30T00:12:36;98566.34;;;11.75;100.00
53011;BME280;42803;55.762;38.084;2023-07-30T00:15:07;98564.66;;;11.76;100.00
53011;BME280;42803;55.762;38.084;2023-07-30T00:17:36;98564.56;;;11.74;100.00
53011;BME280;42803;55.762;38.084;2023-07-30T00:20:06;98580.16;;;11.73;100.00
53011;BME280;42803;55.762;38.084;2023-07-30T00:22:38;98571.50;;;11.74;100.00
53011;BME280;42803;55.762;38.084;2023-07-30T00:25:07;98565.38;;;11.73;100.00
53011;BME280;42803;55.762;38.084;2023-07-30T00:27:37;98567.16;;;11.74;100.00
53011;BME280;42803;55.762;38.084;2023-07-30T00:30:07;98570.25;;;11.67;100.00
53011;BME280;42803;55.762;38.084;2023-07-30T00:32:36;98575.03;;;11.59;100.00
53011;BME280;42803;55.762;38.084;2023-07-30T00:35:12;98574.94;;;11.58;100.00
53011;BME280;42803;55.762;38.084;2023-07-30T00:37:43;98575.13;;;11.61;100.00
53011;BME280;42803;55.762;38.084;2023-07-30T00:40:12;98572.50;;;11.61;100.00
53011;BME280;42803;55.762;38.084;2023-07-30T00:42:41;98572.34;;;11.58;100.00
53011;BME280;42803;55.762;38.084;2023-07-30T00:45:10;98577.63;;;11.59;100.00
53011;BME280;42803;55.762;38.084;2023-07-30T00:47:39;98582.97;;;11.61;100.00
53011;BME280;42803;55.762;38.084;2023-07-30T00:50:11;98580.09;;;11.56;100.00
53011;BME280;42803;55.762;38.084;2023-07-30T00:52:43;98578.09;;;11.52;100.00
53011;BME280;42803;55.762;38.084;2023-07-30T00:55:13;98580.53;;;11.49;100.00
53011;BME280;42803;55.762;38.084;2023-07-30T00:57:43;98577.75;;;11.46;100.00
53011;BME280;42803;55.762;38.084;2023-07-30T01:00:14;98575.03;;;11.44;100.00
53011;BME280;42803;55.762;38.084;2023-07-30T01:02:43;98570.53;;;11.42;100.00
53011;BME280;42803;55.762;38.084;2023-07-30T01:05:12;98563.41;;;11.39;100.00
53011;BME280;42803;55.762;38.084;2023-07-30T01:07:43;98560.53;;;11.35;100.00
53011;BME280;42803;55.762;38.084;2023-07-30T01:10:12;98558.00;;;11.36;100.00
53011;BME280;42803;55.762;38.084;2023-07-30T01:12:42;98554.41;;;11.34;100.00
53011;BME280;42803;55.762;38.084;2023-07-30T01:15:13;98553.69;;;11.37;100.00
53011;BME280;42803;55.762;38.084;2023-07-30T01:17:42;98559.09;;;11.40;100.00
53011;BME280;42803;55.762;38.084;2023-07-30T01:20:12;98554.59;;;11.37;100.00
53011;BME280;42803;55.762;38.084;2023-07-30T01:22:42;98551.16;;;11.38;100.00
53011;BME280;42803;55.762;38.084;2023-07-30T01:25:11;98547.75;;;11.39;100.00
53011;BME280;42803;55.762;38.084;2023-07-30T01:27:48;98554.59;;;11.37;100.00
53011;BME280;42803;55.762;38.084;2023-07-30T01:30:22;98554.41;;;11.34;100.00
53011;BME280;42803;55.762;38.084;2023-07-30T01:32:52;98552.50;;;11.32;100.00
53011;BME280;42803;55.762;38.084;2023-07-30T01:35:22;98555.25;;;11.33;100.00
53011;BME280;42803;55.762;38.084;2023-07-30T01:37:56;98553.41;;;11.32;100.00
53011;BME280;42803;55.762;38.084;2023-07-30T01:40:26;98556.03;;;11.32;100.00
53011;BME280;42803;55.762;38.084;2023-07-30T01:42:55;98557.84;;;11.33;100.00
53011;BME280;42803;55.762;38.084;2023-07-30T01:45:24;98556.03;;;11.32;100.00
53011;BME280;42803;55.762;38.084;2023-07-30T01:47:54;98555.94;;;11.31;100.00
53011;BME280;42803;55.762;38.084;2023-07-30T01:50:23;98549.00;;;11.31;100.00
53011;BME280;42803;55.762;38.084;2023-07-30T01:52:52;98556.22;;;11.35;100.00
53011;BME280;42803;55.762;38.084;2023-07-30T01:55:22;98551.16;;;11.38;100.00
53011;BME280;42803;55.762;38.084;2023-07-30T01:57:51;98557.56;;;11.43;100.00
53011;BME280;42803;55.762;38.084;2023-07-30T02:00:20;98564.56;;;11.44;100.00
53011;BME280;42803;55.762;38.084;2023-07-30T02:02:49;98555.84;;;11.44;100.00
53011;BME280;42803;55.762;38.084;2023-07-30T02:05:19;98555.13;;;11.46;100.00
53011;BME280;42803;55.762;38.084;2023-07-30T02:07:48;98559.63;;;11.49;100.00
53011;BME280;42803;55.762;38.084;2023-07-30T02:10:17;98556.22;;;11.50;100.00
53011;BME280;42803;55.762;38.084;2023-07-30T02:12:48;98562.69;;;11.57;100.00
53011;BME280;42803;55.762;38.084;2023-07-30T02:15:17;98565.38;;;11.58;100.00
53011;BME280;42803;55.762;38.084;2023-07-30T02:17:46;98569.16;;;11.63;100.00
53011;BME280;42803;55.762;38.084;2023-07-30T02:20:16;98556.28;;;11.66;100.00
53011;BME280;42803;55.762;38.084;2023-07-30T02:22:46;98568.63;;;11.69;100.00
53011;BME280;42803;55.762;38.084;2023-07-30T02:25:15;98563.59;;;11.72;100.00
53011;BME280;42803;55.762;38.084;2023-07-30T02:27:48;98567.34;;;11.77;100.00
53011;BME280;42803;55.762;38.084;2023-07-30T02:30:17;98569.53;;;11.84;100.00
53011;BME280;42803;55.762;38.084;2023-07-30T02:32:46;98568.06;;;11.89;100.00
53011;BME280;42803;55.762;38.084;2023-07-30T02:35:15;98573.47;;;11.92;100.00
53011;BME280;42803;55.762;38.084;2023-07-30T02:37:44;98567.59;;;11.97;100.00
53011;BME280;42803;55.762;38.084;2023-07-30T02:40:14;98574.00;;;12.02;100.00
53011;BME280;42803;55.762;38.084;2023-07-30T02:42:43;98575.00;;;12.04;100.00
53011;BME280;42803;55.762;38.084;2023-07-30T02:45:13;98564.88;;;12.10;100.00
53011;BME280;42803;55.762;38.084;2023-07-30T02:47:42;98574.78;;;12.15;100.00
53011;BME280;42803;55.762;38.084;2023-07-30T02:50:12;98573.72;;;12.28;100.00
53011;BME280;42803;55.762;38.084;2023-07-30T02:52:41;98575.81;;;12.34;100.00
53011;BME280;42803;55.762;38.084;2023-07-30T02:55:10;98573.50;;;12.40;100.00
53011;BME280;42803;55.762;38.084;2023-07-30T02:57:39;98573.84;;;12.46;100.00
53011;BME280;42803;55.762;38.084;2023-07-30T03:00:09;98578.94;;;12.59;100.00
53011;BME280;42803;55.762;38.084;2023-07-30T03:02:40;98582.22;;;12.72;100.00
53011;BME280;42803;55.762;38.084;2023-07-30T03:05:09;98576.00;;;12.86;100.00
53011;BME280;42803;55.762;38.084;2023-07-30T03:07:38;98581.78;;;12.97;100.00
53011;BME280;42803;55.762;38.084;2023-07-30T03:10:08;98582.75;;;13.15;100.00
53011;BME280;42803;55.762;38.084;2023-07-30T03:12:38;98578.50;;;13.33;100.00
53011;BME280;42803;55.762;38.084;2023-07-30T03:15:08;98575.66;;;13.47;100.00
53011;BME280;42803;55.762;38.084;2023-07-30T03:17:37;98569.78;;;13.69;100.00
53011;BME280;42803;55.762;38.084;2023-07-30T03:20:09;98576.09;;;13.90;100.00
53011;BME280;42803;55.762;38.084;2023-07-30T03:22:39;98583.69;;;14.02;100.00
53011;BME280;42803;55.762;38.084;2023-07-30T03:25:08;98575.34;;;14.10;100.00
53011;BME280;42803;55.762;38.084;2023-07-30T03:27:37;98577.41;;;14.35;100.00
53011;BME280;42803;55.762;38.084;2023-07-30T03:30:07;98580.81;;;14.70;100.00
53011;BME280;42803;55.762;38.084;2023-07-30T03:32:36;98577.78;;;15.00;100.00
53011;BME280;42803;55.762;38.084;2023-07-30T03:35:08;98582.03;;;15.17;100.00
53011;BME280;42803;55.762;38.084;2023-07-30T03:37:37;98586.56;;;15.41;100.00
53011;BME280;42803;55.762;38.084;2023-07-30T03:40:07;98578.75;;;15.63;100.00
53011;BME280;42803;55.762;38.084;2023-07-30T03:42:36;98580.31;;;15.58;100.00
53011;BME280;42803;55.762;38.084;2023-07-30T03:45:07;98583.41;;;15.28;100.00
53011;BME280;42803;55.762;38.084;2023-07-30T03:47:36;98589.44;;;15.26;100.00
53011;BME280;42803;55.762;38.084;2023-07-30T03:50:08;98588.28;;;15.19;100.00
53011;BME280;42803;55.762;38.084;2023-07-30T03:52:37;98591.50;;;15.33;100.00
53011;BME280;42803;55.762;38.084;2023-07-30T03:55:06;98596.69;;;15.31;100.00
53011;BME280;42803;55.762;38.084;2023-07-30T03:57:35;98599.34;;;15.52;100.00
53011;BME280;42803;55.762;38.084;2023-07-30T04:00:06;98602.63;;;15.47;100.00
53011;BME280;42803;55.762;38.084;2023-07-30T04:02:41;98606.97;;;15.66;100.00
53011;BME280;42803;55.762;38.084;2023-07-30T04:05:12;98612.56;;;15.73;100.00
53011;BME280;42803;55.762;38.084;2023-07-30T04:07:41;98603.53;;;16.10;100.00
53011;BME280;42803;55.762;38.084;2023-07-30T04:10:10;98604.38;;;16.09;100.00
53011;BME280;42803;55.762;38.084;2023-07-30T04:12:40;98603.31;;;16.04;100.00
53011;BME280;42803;55.762;38.084;2023-07-30T04:15:09;98604.47;;;16.11;100.00
53011;BME280;42803;55.762;38.084;2023-07-30T04:17:38;98608.34;;;16.20;100.00
53011;BME280;42803;55.762;38.084;2023-07-30T04:20:08;98615.31;;;15.97;100.00
53011;BME280;42803;55.762;38.084;2023-07-30T04:22:40;98620.25;;;15.90;100.00
53011;BME280;42803;55.762;38.084;2023-07-30T04:25:10;98622.28;;;15.95;100.00
53011;BME280;42803;55.762;38.084;2023-07-30T04:27:39;98623.28;;;15.99;100.00
53011;BME280;42803;55.762;38.084;2023-07-30T04:30:09;98630.59;;;16.06;100.00
53011;BME280;42803;55.762;38.084;2023-07-30T04:32:38;98629.69;;;16.05;100.00
53011;BME280;42803;55.762;38.084;2023-07-30T04:35:08;98638.75;;;15.70;100.00
53011;BME280;42803;55.762;38.084;2023-07-30T04:37:40;98643.31;;;15.55;100.00
53011;BME280;42803;55.762;38.084;2023-07-30T04:40:10;98655.28;;;15.48;100.00
53011;BME280;42803;55.762;38.084;2023-07-30T04:42:40;98650.81;;;15.46;100.00
53011;BME280;42803;55.762;38.084;2023-07-30T04:45:10;98644.28;;;15.76;100.00
53011;BME280;42803;55.762;38.084;2023-07-30T04:47:43;98641.72;;;15.99;100.00
53011;BME280;42803;55.762;38.084;2023-07-30T04:50:12;98640.09;;;16.02;100.00
53011;BME280;42803;55.762;38.084;2023-07-30T04:52:43;98650.63;;;16.23;100.00
53011;BME280;42803;55.762;38.084;2023-07-30T04:55:14;98646.63;;;16.55;100.00
53011;BME280;42803;55.762;38.084;2023-07-30T04:57:43;98650.69;;;16.47;100.00
53011;BME280;42803;55.762;38.084;2023-07-30T05:00:12;98650.19;;;16.56;100.00
53011;BME280;42803;55.762;38.084;2023-07-30T05:02:42;98645.91;;;16.60;100.00
53011;BME280;42803;55.762;38.084;2023-07-30T05:05:11;98659.03;;;16.79;100.00
53011;BME280;42803;55.762;38.084;2023-07-30T05:07:43;98654.22;;;16.91;100.00
53011;BME280;42803;55.762;38.084;2023-07-30T05:10:13;98647.34;;;16.95;100.00
53011;BME280;42803;55.762;38.084;2023-07-30T05:12:43;98646.66;;;17.00;100.00
53011;BME280;42803;55.762;38.084;2023-07-30T05:15:13;98660.38;;;17.14;100.00
53011;BME280;42803;55.762;38.084;2023-07-30T05:17:42;98649.44;;;17.27;100.00
53011;BME280;42803;55.762;38.084;2023-07-30T05:20:11;98642.31;;;17.49;100.00
53011;BME280;42803;55.762;38.084;2023-07-30T05:22:40;98632.22;;;17.87;100.00
53011;BME280;42803;55.762;38.084;2023-07-30T05:25:13;98636.53;;;17.85;100.00
53011;BME280;42803;55.762;38.084;2023-07-30T05:27:42;98630.09;;;18.02;100.00
53011;BME280;42803;55.762;38.084;2023-07-30T05:30:11;98631.94;;;18.05;100.00
53011;BME280;42803;55.762;38.084;2023-07-30T05:32:40;98635.75;;;18.13;100.00
53011;BME280;42803;55.762;38.084;2023-07-30T05:35:09;98635.53;;;18.34;100.00
53011;BME280;42803;55.762;38.084;2023-07-30T05:37:40;98633.69;;;18.31;100.00
53011;BME280;42803;55.762;38.084;2023-07-30T05:40:11;98640.09;;;18.12;100.00
53011;BME280;42803;55.762;38.084;2023-07-30T05:42:40;98632.63;;;17.99;100.00
53011;BME280;42803;55.762;38.084;2023-07-30T05:45:10;98627.88;;;18.14;100.00
53011;BME280;42803;55.762;38.084;2023-07-30T05:47:39;98617.94;;;18.07;100.00
53011;BME280;42803;55.762;38.084;2023-07-30T05:50:09;98614.16;;;17.99;100.00
53011;BME280;42803;55.762;38.084;2023-07-30T05:52:39;98618.50;;;18.24;100.00
53011;BME280;42803;55.762;38.084;2023-07-30T05:55:08;98615.75;;;18.48;100.00
53011;BME280;42803;55.762;38.084;2023-07-30T05:57:40;98602.81;;;18.57;100.00
53011;BME280;42803;55.762;38.084;2023-07-30T06:00:09;98618.25;;;18.16;100.00
53011;BME280;42803;55.762;38.084;2023-07-30T06:02:38;98611.72;;;18.05;100.00
53011;BME280;42803;55.762;38.084;2023-07-30T06:05:08;98612.66;;;18.07;100.00
53011;BME280;42803;55.762;38.084;2023-07-30T06:07:37;98613.25;;;17.98;100.00
53011;BME280;42803;55.762;38.084;2023-07-30T06:10:07;98613.00;;;17.91;100.00
53011;BME280;42803;55.762;38.084;2023-07-30T06:12:36;98599.34;;;18.04;100.00
53011;BME280;42803;55.762;38.084;2023-07-30T06:15:08;98612.31;;;18.23;100.00
53011;BME280;42803;55.762;38.084;2023-07-30T06:17:38;98613.00;;;18.45;100.00
53011;BME280;42803;55.762;38.084;2023-07-30T06:20:09;98594.53;;;18.46;100.00
53011;BME280;42803;55.762;38.084;2023-07-30T06:22:38;98593.94;;;18.55;100.00
53011;BME280;42803;55.762;38.084;2023-07-30T06:25:07;98598.97;;;18.74;100.00
53011;BME280;42803;55.762;38.084;2023-07-30T06:27:37;98600.56;;;18.98;100.00
53011;BME280;42803;55.762;38.084;2023-07-30T06:30:09;98601.69;;;19.08;100.00
53011;BME280;42803;55.762;38.084;2023-07-30T06:32:38;98583.16;;;19.06;100.00
53011;BME280;42803;55.762;38.084;2023-07-30T06:35:08;98587.41;;;19.31;100.00
53011;BME280;42803;55.762;38.084;2023-07-30T06:37:38;98581.66;;;19.47;100.00
53011;BME280;42803;55.762;38.084;2023-07-30T06:40:08;98577.88;;;19.69;100.00
53011;BME280;42803;55.762;38.084;2023-07-30T06:42:37;98579.47;;;19.64;100.00
53011;BME280;42803;55.762;38.084;2023-07-30T06:45:08;98581.97;;;19.58;100.00
53011;BME280;42803;55.762;38.084;2023-07-30T06:47:37;98580.03;;;19.53;100.00
53011;BME280;42803;55.762;38.084;2023-07-30T06:50:07;98577.28;;;19.49;100.00
53011;BME280;42803;55.762;38.084;2023-07-30T06:52:38;98575.72;;;19.56;100.00
53011;BME280;42803;55.762;38.084;2023-07-30T06:55:07;98567.13;;;19.65;100.00
53011;BME280;42803;55.762;38.084;2023-07-30T06:57:36;98582.19;;;19.66;100.00
53011;BME280;42803;55.762;38.084;2023-07-30T07:00:08;98580.53;;;19.69;100.00
53011;BME280;42803;55.762;38.084;2023-07-30T07:02:37;98568.25;;;19.73;100.00
53011;BME280;42803;55.762;38.084;2023-07-30T07:05:07;98576.63;;;19.90;100.00
53011;BME280;42803;55.762;38.084;2023-07-30T07:07:37;98573.66;;;20.12;100.00
53011;BME280;42803;55.762;38.084;2023-07-30T07:10:07;98572.13;;;20.60;100.00
53011;BME280;42803;55.762;38.084;2023-07-30T07:12:38;98572.28;;;20.66;100.00
53011;BME280;42803;55.762;38.084;2023-07-30T07:15:09;98568.66;;;21.03;99.61
53011;BME280;42803;55.762;38.084;2023-07-30T07:17:39;98571.91;;;20.90;97.54
53011;BME280;42803;55.762;38.084;2023-07-30T07:20:08;98572.13;;;21.01;97.29
53011;BME280;42803;55.762;38.084;2023-07-30T07:22:39;98572.59;;;20.80;97.70
53011;BME280;42803;55.762;38.084;2023-07-30T07:25:08;98574.69;;;20.96;94.32
53011;BME280;42803;55.762;38.084;2023-07-30T07:27:37;98569.66;;;21.10;94.11
53011;BME280;42803;55.762;38.084;2023-07-30T07:30:09;98573.72;;;20.91;95.43
53011;BME280;42803;55.762;38.084;2023-07-30T07:32:39;98578.19;;;20.54;94.00
53011;BME280;42803;55.762;38.084;2023-07-30T07:35:08;98570.38;;;20.60;95.28
53011;BME280;42803;55.762;38.084;2023-07-30T07:37:38;98576.16;;;20.82;95.94
53011;BME280;42803;55.762;38.084;2023-07-30T07:40:08;98571.41;;;21.09;95.47
53011;BME280;42803;55.762;38.084;2023-07-30T07:42:38;98574.03;;;21.06;93.37
53011;BME280;42803;55.762;38.084;2023-07-30T07:45:09;98566.88;;;21.48;94.51
53011;BME280;42803;55.762;38.084;2023-07-30T07:47:38;98573.34;;;21.60;91.51
53011;BME280;42803;55.762;38.084;2023-07-30T07:50:08;98576.53;;;21.41;91.85
53011;BME280;42803;55.762;38.084;2023-07-30T07:52:37;98579.03;;;21.35;92.50
53011;BME280;42803;55.762;38.084;2023-07-30T07:55:07;98580.31;;;21.11;90.73
53011;BME280;42803;55.762;38.084;2023-07-30T07:57:36;98586.25;;;21.00;89.61
53011;BME280;42803;55.762;38.084;2023-07-30T08:00:06;98588.13;;;21.05;90.65
53011;BME280;42803;55.762;38.084;2023-07-30T08:02:43;98586.72;;;21.23;91.69
53011;BME280;42803;55.762;38.084;2023-07-30T08:05:15;98590.06;;;21.12;89.97
53011;BME280;42803;55.762;38.084;2023-07-30T08:07:45;98594.63;;;21.18;88.73
53011;BME280;42803;55.762;38.084;2023-07-30T08:10:14;98594.09;;;21.34;86.97
53011;BME280;42803;55.762;38.084;2023-07-30T08:12:46;98587.47;;;21.59;86.46
53011;BME280;42803;55.762;38.084;2023-07-30T08:15:17;98598.38;;;21.75;85.41
53011;BME280;42803;55.762;38.084;2023-07-30T08:17:47;98602.69;;;21.68;85.76
53011;BME280;42803;55.762;38.084;2023-07-30T08:20:16;98585.53;;;21.99;86.20
53011;BME280;42803;55.762;38.084;2023-07-30T08:22:45;98595.75;;;22.25;86.33
53011;BME280;42803;55.762;38.084;2023-07-30T08:25:17;98605.06;;;22.03;83.33
53011;BME280;42803;55.762;38.084;2023-07-30T08:27:48;98592.44;;;21.89;83.92
53011;BME280;42803;55.762;38.084;2023-07-30T08:30:18;98596.53;;;21.71;82.96
53011;BME280;42803;55.762;38.084;2023-07-30T08:32:48;98606.69;;;21.46;82.91
53011;BME280;42803;55.762;38.084;2023-07-30T08:35:18;98593.28;;;21.40;86.18
53011;BME280;42803;55.762;38.084;2023-07-30T08:37:47;98608.59;;;21.53;87.20
53011;BME280;42803;55.762;38.084;2023-07-30T08:40:16;98601.50;;;21.52;85.92
53011;BME280;42803;55.762;38.084;2023-07-30T08:42:46;98600.88;;;21.65;84.29
53011;BME280;42803;55.762;38.084;2023-07-30T08:45:16;98600.25;;;21.79;82.39
53011;BME280;42803;55.762;38.084;2023-07-30T08:47:46;98605.31;;;21.66;81.67
53011;BME280;42803;55.762;38.084;2023-07-30T08:50:17;98602.72;;;22.20;79.89
53011;BME280;42803;55.762;38.084;2023-07-30T08:52:47;98603.44;;;22.66;77.49
53011;BME280;42803;55.762;38.084;2023-07-30T08:55:17;98604.22;;;23.21;77.39
53011;BME280;42803;55.762;38.084;2023-07-30T08:57:47;98602.41;;;23.17;76.30
53011;BME280;42803;55.762;38.084;2023-07-30T09:00:19;98607.78;;;23.23;73.47
53011;BME280;42803;55.762;38.084;2023-07-30T09:02:51;98607.28;;;22.86;76.29
53011;BME280;42803;55.762;38.084;2023-07-30T09:05:22;98614.78;;;22.54;76.30
53011;BME280;42803;55.762;38.084;2023-07-30T09:07:52;98606.03;;;22.08;78.68
53011;BME280;42803;55.762;38.084;2023-07-30T09:10:22;98609.88;;;22.22;78.54
53011;BME280;42803;55.762;38.084;2023-07-30T09:12:53;98611.94;;;22.40;77.34
53011;BME280;42803;55.762;38.084;2023-07-30T09:15:29;98602.25;;;22.45;78.68
53011;BME280;42803;55.762;38.084;2023-07-30T09:18:01;98600.31;;;22.35;78.58
53011;BME280;42803;55.762;38.084;2023-07-30T09:20:38;98602.06;;;22.34;78.35
53011;BME280;42803;55.762;38.084;2023-07-30T09:23:08;98602.13;;;22.37;77.81
53011;BME280;42803;55.762;38.084;2023-07-30T09:25:38;98603.97;;;22.42;76.03
53011;BME280;42803;55.762;38.084;2023-07-30T09:28:07;98601.38;;;23.07;76.79
53011;BME280;42803;55.762;38.084;2023-07-30T09:30:37;98613.16;;;23.26;74.40
53011;BME280;42803;55.762;38.084;2023-07-30T09:33:06;98613.78;;;23.05;75.56
53011;BME280;42803;55.762;38.084;2023-07-30T09:35:35;98610.69;;;22.76;75.12
53011;BME280;42803;55.762;38.084;2023-07-30T09:38:06;98616.00;;;22.76;75.33
53011;BME280;42803;55.762;38.084;2023-07-30T09:40:36;98607.88;;;22.65;75.16
53011;BME280;42803;55.762;38.084;2023-07-30T09:43:06;98616.78;;;22.70;76.37
53011;BME280;42803;55.762;38.084;2023-07-30T09:45:36;98610.94;;;22.91;75.12
53011;BME280;42803;55.762;38.084;2023-07-30T09:48:06;98618.97;;;22.94;74.85
53011;BME280;42803;55.762;38.084;2023-07-30T09:50:36;98616.38;;;22.41;74.44
53011;BME280;42803;55.762;38.084;2023-07-30T09:53:07;98618.91;;;22.35;75.60
53011;BME280;42803;55.762;38.084;2023-07-30T09:55:38;98623.28;;;22.31;76.10
53011;BME280;42803;55.762;38.084;2023-07-30T09:58:07;98620.16;;;22.05;74.96
53011;BME280;42803;55.762;38.084;2023-07-30T10:00:40;98626.56;;;22.15;74.88
53011;BME280;42803;55.762;38.084;2023-07-30T10:03:11;98627.31;;;22.61;74.83
53011;BME280;42803;55.762;38.084;2023-07-30T10:05:41;98618.72;;;22.79;73.24
53011;BME280;42803;55.762;38.084;2023-07-30T10:08:17;98620.78;;;23.00;72.30
53011;BME280;42803;55.762;38.084;2023-07-30T10:10:49;98637.72;;;23.03;71.71
53011;BME280;42803;55.762;38.084;2023-07-30T10:13:19;98625.34;;;23.08;71.39
53011;BME280;42803;55.762;38.084;2023-07-30T10:15:49;98621.66;;;22.97;71.15
53011;BME280;42803;55.762;38.084;2023-07-30T10:18:19;98625.28;;;23.02;70.67
53011;BME280;42803;55.762;38.084;2023-07-30T10:20:52;98616.56;;;23.13;70.46
53011;BME280;42803;55.762;38.084;2023-07-30T10:23:27;98610.75;;;23.50;70.54
53011;BME280;42803;55.762;38.084;2023-07-30T10:25:56;98630.16;;;23.37;69.18
53011;BME280;42803;55.762;38.084;2023-07-30T10:28:32;98627.31;;;23.23;69.53
53011;BME280;42803;55.762;38.084;2023-07-30T10:31:05;98632.69;;;23.25;69.57
53011;BME280;42803;55.762;38.084;2023-07-30T10:33:44;98638.59;;;23.02;69.46
53011;BME280;42803;55.762;38.084;2023-07-30T10:36:17;98615.66;;;23.15;69.11
53011;BME280;42803;55.762;38.084;2023-07-30T10:38:48;98646.72;;;23.15;68.63
53011;BME280;42803;55.762;38.084;2023-07-30T10:41:19;98620.16;;;23.18;69.39
53011;BME280;42803;55.762;38.084;2023-07-30T10:43:50;98624.38;;;23.02;69.60
53011;BME280;42803;55.762;38.084;2023-07-30T10:46:19;98627.09;;;23.05;69.56
53011;BME280;42803;55.762;38.084;2023-07-30T10:48:48;98627.25;;;23.19;68.41
53011;BME280;42803;55.762;38.084;2023-07-30T10:51:19;98633.50;;;23.21;67.52
53011;BME280;42803;55.762;38.084;2023-07-30T10:53:51;98637.16;;;23.29;67.28
53011;BME280;42803;55.762;38.084;2023-07-30T10:56:22;98621.41;;;23.47;67.03
53011;BME280;42803;55.762;38.084;2023-07-30T10:58:54;98636.41;;;23.39;64.25
53011;BME280;42803;55.762;38.084;2023-07-30T11:01:24;98624.41;;;23.75;65.23
53011;BME280;42803;55.762;38.084;2023-07-30T11:03:55;98611.50;;;23.37;64.78
53011;BME280;42803;55.762;38.084;2023-07-30T11:06:25;98629.03;;;23.18;65.66
53011;BME280;42803;55.762;38.084;2023-07-30T11:08:56;98628.41;;;23.39;66.46
53011;BME280;42803;55.762;38.084;2023-07-30T11:11:25;98632.06;;;23.47;67.18
53011;BME280;42803;55.762;38.084;2023-07-30T11:13:55;98623.63;;;23.87;66.65
53011;BME280;42803;55.762;38.084;2023-07-30T11:16:25;98636.25;;;24.04;66.02
53011;BME280;42803;55.762;38.084;2023-07-30T11:18:54;98616.41;;;23.76;65.91
53011;BME280;42803;55.762;38.084;2023-07-30T11:21:24;98622.38;;;23.55;65.65
53011;BME280;42803;55.762;38.084;2023-07-30T11:23:53;98632.25;;;23.64;64.48
53011;BME280;42803;55.762;38.084;2023-07-30T11:26:23;98619.59;;;23.45;64.97
53011;BME280;42803;55.762;38.084;2023-07-30T11:28:53;98616.00;;;23.40;66.15
53011;BME280;42803;55.762;38.084;2023-07-30T11:31:22;98625.00;;;23.54;66.37
53011;BME280;42803;55.762;38.084;2023-07-30T11:33:56;98626.25;;;23.82;66.20
53011;BME280;42803;55.762;38.084;2023-07-30T11:36:26;98634.63;;;23.41;66.60
53011;BME280;42803;55.762;38.084;2023-07-30T11:38:56;98632.97;;;23.49;67.32
53011;BME280;42803;55.762;38.084;2023-07-30T11:41:27;98626.38;;;23.20;67.26
53011;BME280;42803;55.762;38.084;2023-07-30T11:44:00;98628.72;;;22.95;69.21
53011;BME280;42803;55.762;38.084;2023-07-30T11:46:53;98630.06;;;23.31;68.44
53011;BME280;42803;55.762;38.084;2023-07-30T11:49:22;98619.97;;;23.75;67.51
53011;BME280;42803;55.762;38.084;2023-07-30T11:52:04;98617.59;;;24.07;66.62
53011;BME280;42803;55.762;38.084;2023-07-30T11:54:34;98619.53;;;24.24;66.34
53011;BME280;42803;55.762;38.084;2023-07-30T11:57:05;98627.56;;;24.27;65.54
53011;BME280;42803;55.762;38.084;2023-07-30T11:59:36;98619.56;;;24.27;64.92
53011;BME280;42803;55.762;38.084;2023-07-30T12:02:07;98628.06;;;23.88;66.29
53011;BME280;42803;55.762;38.084;2023-07-30T12:04:44;98622.78;;;23.89;65.27
53011;BME280;42803;55.762;38.084;2023-07-30T12:07:32;98614.13;;;24.16;64.41
53011;BME280;42803;55.762;38.084;2023-07-30T12:10:11;98614.59;;;24.76;62.19
53011;BME280;42803;55.762;38.084;2023-07-30T12:12:45;98610.38;;;25.12;61.58
53011;BME280;42803;55.762;38.084;2023-07-30T12:15:15;98612.00;;;24.90;58.90
53011;BME280;42803;55.762;38.084;2023-07-30T12:17:44;98619.06;;;24.77;60.10
53011;BME280;42803;55.762;38.084;2023-07-30T12:20:13;98621.56;;;24.51;60.73
53011;BME280;42803;55.762;38.084;2023-07-30T12:22:42;98640.13;;;24.42;58.75
53011;BME280;42803;55.762;38.084;2023-07-30T12:25:12;98630.91;;;24.07;57.34
53011;BME280;42803;55.762;38.084;2023-07-30T12:27:41;98626.50;;;24.10;57.72
53011;BME280;42803;55.762;38.084;2023-07-30T12:30:12;98617.59;;;24.07;57.41
53011;BME280;42803;55.762;38.084;2023-07-30T12:32:41;98623.75;;;23.99;58.41
53011;BME280;42803;55.762;38.084;2023-07-30T12:35:10;98621.13;;;24.03;57.29
53011;BME280;42803;55.762;38.084;2023-07-30T12:37:41;98624.81;;;24.18;57.75
53011;BME280;42803;55.762;38.084;2023-07-30T12:40:14;98639.91;;;24.16;57.07
53011;BME280;42803;55.762;38.084;2023-07-30T12:42:47;98613.06;;;23.97;55.44
53011;BME280;42803;55.762;38.084;2023-07-30T12:45:17;98623.72;;;23.96;55.19
53011;BME280;42803;55.762;38.084;2023-07-30T12:47:46;98640.38;;;23.75;55.57
53011;BME280;42803;55.762;38.084;2023-07-30T12:50:16;98628.75;;;23.67;56.43
53011;BME280;42803;55.762;38.084;2023-07-30T12:52:45;98621.59;;;23.66;57.00
53011;BME280;42803;55.762;38.084;2023-07-30T12:55:14;98614.41;;;23.57;56.22
53011;BME280;42803;55.762;38.084;2023-07-30T12:57:44;98624.13;;;23.53;57.05
53011;BME280;42803;55.762;38.084;2023-07-30T13:00:15;98627.72;;;23.55;57.81